createdAt,value
2018-03-29T00:00:18.670Z,96.00
2018-03-29T00:02:46.157Z,96.00
2018-03-29T00:05:14.436Z,95.50
2018-03-29T00:07:42.687Z,95.90
2018-03-29T00:10:10.206Z,95.90
2018-03-29T00:12:37.698Z,96.00
2018-03-29T00:15:05.211Z,96.00
2018-03-29T00:17:32.703Z,96.10
2018-03-29T00:20:00.193Z,96.70
2018-03-29T00:22:28.469Z,96.50
2018-03-29T00:24:56.721Z,96.70
2018-03-29T00:27:24.238Z,96.60
2018-03-29T00:29:51.734Z,96.70
2018-03-29T00:32:19.245Z,96.60
2018-03-29T00:34:46.738Z,96.40
2018-03-29T00:37:14.229Z,96.60
2018-03-29T00:39:42.522Z,96.70
2018-03-29T00:42:10.777Z,96.40
2018-03-29T00:44:38.282Z,96.40
2018-03-29T00:47:06.625Z,96.50
2018-03-29T00:49:34.906Z,96.10
2018-03-29T00:52:03.157Z,96.00
2018-03-29T00:54:30.650Z,96.00
2018-03-29T00:56:58.170Z,95.80
2018-03-29T00:59:25.661Z,96.50
2018-03-29T01:01:53.937Z,95.00
2018-03-29T01:04:22.201Z,94.90
2018-03-29T01:06:50.477Z,95.30
2018-03-29T01:09:18.737Z,95.10
2018-03-29T01:11:46.245Z,95.10
2018-03-29T01:14:13.741Z,95.60
2018-03-29T01:16:41.231Z,95.60
2018-03-29T01:19:09.506Z,96.50
2018-03-29T01:21:37.770Z,97.60
2018-03-29T01:24:05.282Z,97.50
2018-03-29T01:26:32.766Z,98.10
2018-03-29T01:29:00.281Z,98.70
2018-03-29T01:31:27.773Z,98.80
2018-03-29T01:33:55.289Z,98.60
2018-03-29T01:36:23.541Z,99.90
2018-03-29T01:38:51.075Z,99.90
2018-03-29T01:41:18.561Z,99.90
2018-03-29T01:43:46.050Z,99.90
2018-03-29T01:46:13.561Z,99.90
2018-03-29T01:48:41.049Z,99.90
2018-03-29T01:51:09.325Z,99.90
2018-03-29T01:53:37.582Z,99.90
2018-03-29T01:56:05.073Z,99.90
2018-03-29T01:58:32.586Z,99.90
2018-03-29T02:01:00.098Z,99.90
2018-03-29T02:03:27.597Z,99.90
2018-03-29T02:05:55.084Z,99.90
2018-03-29T02:08:23.361Z,99.90
2018-03-29T02:10:51.617Z,99.90
2018-03-29T02:13:19.893Z,99.90
2018-03-29T02:15:47.391Z,99.90
2018-03-29T02:18:14.882Z,99.50
2018-03-29T02:20:42.393Z,99.30
2018-03-29T02:23:10.700Z,99.50
2018-03-29T02:25:38.944Z,99.30
2018-03-29T02:28:07.202Z,99.20
2018-03-29T02:30:34.707Z,99.20
2018-03-29T02:33:02.199Z,99.20
2018-03-29T02:35:29.714Z,99.30
2018-03-29T02:37:57.197Z,99.10
2018-03-29T02:40:24.685Z,99.00
2018-03-29T02:42:52.190Z,98.60
2018-03-29T02:45:19.678Z,98.10
2018-03-29T02:47:47.186Z,98.40
2018-03-29T02:50:15.434Z,98.30
2018-03-29T02:52:42.951Z,98.20
2018-03-29T02:55:10.464Z,98.10
2018-03-29T02:57:37.970Z,98.10
2018-03-29T03:00:05.458Z,97.90
2018-03-29T03:02:32.985Z,97.90
2018-03-29T03:05:00.465Z,98.00
2018-03-29T03:07:27.950Z,98.00
2018-03-29T03:09:55.458Z,98.20
2018-03-29T03:12:22.949Z,98.00
2018-03-29T03:14:50.454Z,98.00
2018-03-29T03:17:18.705Z,97.90
2018-03-29T03:19:46.213Z,97.90
2018-03-29T03:22:13.701Z,97.80
2018-03-29T03:24:41.205Z,97.90
2018-03-29T03:27:09.454Z,97.50
2018-03-29T03:29:37.740Z,97.50
2018-03-29T03:32:05.225Z,97.40
2018-03-29T03:34:32.709Z,97.40
2018-03-29T03:37:00.216Z,96.90
2018-03-29T03:39:28.464Z,96.40
2018-03-29T03:41:55.972Z,96.40
2018-03-29T03:44:23.453Z,96.40
2018-03-29T03:46:50.933Z,95.90
2018-03-29T03:49:18.441Z,96.20
2018-03-29T03:51:46.688Z,96.00
2018-03-29T03:54:14.193Z,96.00
2018-03-29T03:56:41.681Z,96.10
2018-03-29T03:59:09.192Z,96.30
2018-03-29T04:01:36.677Z,96.10
2018-03-29T04:04:04.156Z,96.30
2018-03-29T04:06:31.662Z,95.90
2018-03-29T04:08:59.912Z,95.70
2018-03-29T04:11:27.421Z,95.70
2018-03-29T04:13:54.904Z,95.90
2018-03-29T04:16:22.388Z,96.10
2018-03-29T04:18:49.892Z,96.10
2018-03-29T04:21:17.374Z,96.20
2018-03-29T04:23:44.885Z,96.10
2018-03-29T04:26:13.136Z,96.10
2018-03-29T04:28:40.646Z,96.10
2018-03-29T04:31:08.137Z,96.10
2018-03-29T04:33:35.621Z,95.60
2018-03-29T04:36:03.900Z,95.60
2018-03-29T04:38:32.157Z,95.50
2018-03-29T04:40:59.657Z,95.50
2018-03-29T04:43:27.136Z,95.50
2018-03-29T04:45:54.645Z,95.10
2018-03-29T04:48:22.129Z,95.20
2018-03-29T04:50:49.613Z,95.40
2018-03-29T04:53:17.121Z,95.30
2018-03-29T04:55:45.372Z,95.60
2018-03-29T04:58:12.872Z,95.60
2018-03-29T05:00:41.121Z,95.30
2018-03-29T05:03:08.625Z,95.30
2018-03-29T05:05:36.111Z,95.50
2018-03-29T05:08:03.593Z,95.20
2018-03-29T05:10:31.098Z,95.00
2018-03-29T05:12:58.584Z,95.40
2018-03-29T05:15:26.088Z,95.30
2018-03-29T05:17:54.332Z,95.20
2018-03-29T05:20:23.349Z,95.30
2018-03-29T05:22:51.596Z,95.40
2018-03-29T05:25:19.633Z,95.10
2018-03-29T05:27:52.711Z,95.30
2018-03-29T05:30:20.209Z,95.20
2018-03-29T05:32:47.710Z,95.20
2018-03-29T05:35:15.968Z,95.10
2018-03-29T05:37:44.241Z,95.30
2018-03-29T05:40:11.778Z,95.30
2018-03-29T05:42:39.233Z,95.10
2018-03-29T05:45:06.742Z,95.00
2018-03-29T05:47:34.989Z,95.00
2018-03-29T05:50:02.497Z,95.00
2018-03-29T05:52:29.983Z,95.10
2018-03-29T05:54:57.493Z,95.10
2018-03-29T05:57:25.741Z,95.30
2018-03-29T05:59:53.244Z,95.30
2018-03-29T06:02:20.725Z,95.40
2018-03-29T06:04:48.209Z,95.20
2018-03-29T06:07:15.717Z,94.90
2018-03-29T06:09:43.200Z,94.90
2018-03-29T06:12:10.702Z,95.00
2018-03-29T06:14:44.949Z,95.60
2018-03-29T06:17:18.120Z,95.30
2018-03-29T06:19:46.373Z,95.40
2018-03-29T06:22:13.884Z,95.30
2018-03-29T06:24:41.369Z,95.10
2018-03-29T06:27:08.880Z,94.90
2018-03-29T06:29:36.378Z,94.50
2018-03-29T06:32:03.860Z,94.50
2018-03-29T06:34:31.361Z,94.80
2018-03-29T06:36:58.849Z,94.40
2018-03-29T06:39:26.348Z,94.00
2018-03-29T06:41:53.837Z,93.90
2018-03-29T06:44:21.345Z,93.80
2018-03-29T06:46:48.824Z,93.90
2018-03-29T06:49:16.313Z,93.40
2018-03-29T06:51:43.818Z,93.60
2018-03-29T06:54:11.301Z,93.70
2018-03-29T06:56:39.572Z,93.60
2018-03-29T06:59:07.057Z,93.60
2018-03-29T07:01:34.571Z,93.60
2018-03-29T07:04:02.069Z,93.50
2018-03-29T07:06:30.321Z,93.50
2018-03-29T07:08:57.836Z,93.40
2018-03-29T07:11:25.321Z,94.10
2018-03-29T07:13:52.825Z,93.60
2018-03-29T07:16:20.309Z,93.50
2018-03-29T07:18:47.813Z,93.90
2018-03-29T07:21:15.300Z,93.60
2018-03-29T07:23:42.797Z,93.10
2018-03-29T07:26:10.301Z,93.10
2018-03-29T07:28:38.549Z,93.40
2018-03-29T07:31:06.053Z,93.40
2018-03-29T07:33:33.533Z,93.60
2018-03-29T07:36:01.037Z,93.70
2018-03-29T07:38:28.517Z,93.60
2018-03-29T07:40:56.000Z,93.40
2018-03-29T07:43:23.508Z,93.70
2018-03-29T07:45:50.989Z,93.00
2018-03-29T07:48:19.265Z,92.70
2018-03-29T07:50:47.516Z,93.00
2018-03-29T07:53:15.079Z,92.90
2018-03-29T07:55:42.537Z,93.20
2018-03-29T07:58:10.789Z,92.80
2018-03-29T08:00:38.292Z,92.80
2018-03-29T08:03:06.541Z,92.80
2018-03-29T08:05:34.050Z,92.80
2018-03-29T08:08:01.537Z,92.60
2018-03-29T08:10:29.016Z,92.40
2018-03-29T08:12:57.286Z,91.90
2018-03-29T08:15:25.532Z,91.90
2018-03-29T08:17:53.038Z,91.90
2018-03-29T08:20:21.293Z,91.90
2018-03-29T08:22:48.781Z,91.80
2018-03-29T08:25:17.052Z,91.40
2018-03-29T08:27:45.302Z,91.30
2018-03-29T08:30:12.810Z,91.30
2018-03-29T08:32:40.288Z,91.10
2018-03-29T08:35:07.772Z,91.40
2018-03-29T08:37:35.279Z,91.10
2018-03-29T08:40:03.530Z,90.40
2018-03-29T08:42:31.036Z,90.40
2018-03-29T08:44:58.524Z,90.00
2018-03-29T08:47:26.005Z,89.40
2018-03-29T08:49:54.277Z,88.20
2018-03-29T08:52:21.765Z,88.20
2018-03-29T08:54:49.273Z,88.60
2018-03-29T08:57:16.756Z,87.40
2018-03-29T08:59:44.265Z,86.70
2018-03-29T09:02:11.757Z,86.80
2018-03-29T09:04:39.249Z,86.90
2018-03-29T09:07:07.525Z,85.50
2018-03-29T09:09:35.775Z,86.40
2018-03-29T09:12:03.278Z,86.30
2018-03-29T09:14:30.765Z,84.00
2018-03-29T09:16:58.244Z,84.50
2018-03-29T09:19:25.761Z,83.50
2018-03-29T09:21:53.245Z,80.70
2018-03-29T09:24:20.757Z,81.00
2018-03-29T09:26:48.262Z,76.80
2018-03-29T09:29:15.749Z,75.40
2018-03-29T09:31:44.021Z,75.20
2018-03-29T09:34:11.520Z,75.20
2018-03-29T09:36:39.029Z,72.70
2018-03-29T09:39:06.513Z,72.00
2018-03-29T09:41:34.854Z,75.60
2018-03-29T09:44:02.286Z,75.60
2018-03-29T09:46:29.775Z,76.40
2018-03-29T09:48:57.278Z,74.90
2018-03-29T09:51:24.761Z,75.70
2018-03-29T09:53:52.268Z,78.20
2018-03-29T09:56:20.512Z,79.30
2018-03-29T09:58:48.021Z,79.20
2018-03-29T10:01:15.501Z,77.70
2018-03-29T10:03:45.935Z,78.00
2018-03-29T10:06:28.321Z,78.80
2018-03-29T10:08:55.801Z,79.30
2018-03-29T10:11:23.307Z,79.10
2018-03-29T10:13:51.556Z,80.20
2018-03-29T10:16:19.061Z,79.40
2018-03-29T10:18:46.545Z,78.60
2018-03-29T10:21:14.038Z,79.40
2018-03-29T10:23:41.544Z,78.00
2018-03-29T10:26:09.029Z,76.60
2018-03-29T10:28:37.493Z,74.60
2018-03-29T10:31:04.991Z,74.40
2018-03-29T10:33:32.497Z,75.00
2018-03-29T10:35:59.990Z,74.70
2018-03-29T10:38:27.497Z,74.60
2018-03-29T10:40:55.751Z,72.70
2018-03-29T10:43:23.237Z,72.70
2018-03-29T10:45:51.505Z,73.20
2018-03-29T10:48:19.760Z,73.70
2018-03-29T10:50:47.265Z,72.80
2018-03-29T10:53:14.752Z,73.50
2018-03-29T10:55:42.257Z,72.40
2018-03-29T10:58:10.510Z,74.10
2018-03-29T11:00:37.988Z,74.00
2018-03-29T11:03:06.261Z,74.20
2018-03-29T11:05:34.504Z,72.00
2018-03-29T11:08:02.009Z,71.90
2018-03-29T11:10:30.256Z,70.00
2018-03-29T11:12:57.768Z,70.00
2018-03-29T11:15:25.261Z,63.10
2018-03-29T11:17:52.773Z,52.20
2018-03-29T11:20:20.256Z,42.80
2018-03-29T11:22:47.740Z,38.00
2018-03-29T11:25:15.246Z,33.00
2018-03-29T11:27:42.735Z,31.00
2018-03-29T11:30:10.242Z,30.00
2018-03-29T11:32:38.492Z,29.20
2018-03-29T11:35:06.005Z,29.10
2018-03-29T11:37:33.497Z,29.70
2018-03-29T11:40:00.991Z,31.90
2018-03-29T11:42:29.270Z,36.60
2018-03-29T11:44:57.555Z,40.00
2018-03-29T11:47:25.064Z,40.00
2018-03-29T11:49:52.555Z,42.90
2018-03-29T11:52:20.831Z,43.40
2018-03-29T11:54:49.085Z,44.90
2018-03-29T11:57:16.601Z,45.00
2018-03-29T11:59:44.089Z,45.80
2018-03-29T12:02:11.577Z,46.80
2018-03-29T12:04:39.857Z,50.00
2018-03-29T12:07:08.104Z,49.70
2018-03-29T12:09:35.617Z,49.50
2018-03-29T12:12:03.110Z,50.40
2018-03-29T12:14:30.625Z,46.60
2018-03-29T12:16:58.873Z,41.80
2018-03-29T12:19:26.365Z,41.80
2018-03-29T12:21:53.873Z,41.70
2018-03-29T12:24:21.385Z,41.20
2018-03-29T12:26:48.873Z,41.10
2018-03-29T12:29:16.361Z,42.20
2018-03-29T12:31:45.377Z,39.80
2018-03-29T12:34:13.626Z,35.90
2018-03-29T12:36:41.134Z,35.80
2018-03-29T12:39:08.616Z,33.70
2018-03-29T12:41:36.125Z,31.00
2018-03-29T12:44:04.381Z,29.10
2018-03-29T12:46:31.892Z,29.10
2018-03-29T12:48:59.386Z,30.30
2018-03-29T12:51:26.874Z,30.60
2018-03-29T12:53:55.163Z,34.80
2018-03-29T12:56:29.357Z,34.80
2018-03-29T12:58:57.640Z,36.30
2018-03-29T13:01:28.825Z,36.60
2018-03-29T13:03:56.314Z,36.50
2018-03-29T13:06:25.335Z,37.20
2018-03-29T13:08:53.587Z,37.40
2018-03-29T13:11:21.093Z,37.40
2018-03-29T13:13:48.583Z,37.30
2018-03-29T13:16:16.092Z,37.20
2018-03-29T13:18:44.349Z,36.80
2018-03-29T13:21:11.865Z,36.80
2018-03-29T13:23:39.357Z,35.20
2018-03-29T13:26:06.857Z,35.50
2018-03-29T13:28:34.390Z,34.20
2018-03-29T13:31:01.888Z,34.30
2018-03-29T13:33:29.400Z,34.30
2018-03-29T13:35:56.889Z,34.60
2018-03-29T13:38:24.402Z,35.10
2018-03-29T13:40:51.888Z,36.20
2018-03-29T13:43:20.170Z,37.00
2018-03-29T13:45:47.676Z,36.90
2018-03-29T13:48:15.163Z,38.20
2018-03-29T13:50:42.674Z,38.90
2018-03-29T13:53:10.165Z,39.60
2018-03-29T13:55:37.673Z,39.80
2018-03-29T13:58:05.157Z,38.80
2018-03-29T14:00:32.660Z,38.00
2018-03-29T14:03:01.657Z,38.80
2018-03-29T14:05:29.916Z,38.60
2018-03-29T14:07:57.430Z,38.20
2018-03-29T14:10:24.934Z,37.10
2018-03-29T14:12:52.446Z,36.50
2018-03-29T14:15:19.933Z,36.10
2018-03-29T14:17:47.497Z,36.10
2018-03-29T14:20:14.949Z,35.70
2018-03-29T14:22:42.434Z,35.30
2018-03-29T14:25:10.717Z,36.10
2018-03-29T14:27:38.973Z,35.90
2018-03-29T14:30:06.492Z,35.40
2018-03-29T14:32:33.981Z,35.70
2018-03-29T14:35:01.495Z,36.80
2018-03-29T14:37:28.989Z,37.80
2018-03-29T14:39:56.511Z,39.00
2018-03-29T14:42:24.025Z,39.40
2018-03-29T14:44:51.521Z,39.80
2018-03-29T14:47:19.041Z,40.10
2018-03-29T14:49:46.524Z,40.40
2018-03-29T14:52:14.797Z,39.80
2018-03-29T14:54:43.049Z,40.10
2018-03-29T14:57:10.532Z,40.00
2018-03-29T14:59:38.810Z,40.20
2018-03-29T15:02:07.057Z,41.00
2018-03-29T15:04:34.565Z,41.00
2018-03-29T15:07:02.054Z,40.60
2018-03-29T15:09:29.574Z,40.60
2018-03-29T15:11:57.833Z,41.20
2018-03-29T15:14:26.088Z,41.90
2018-03-29T15:16:53.601Z,41.80
2018-03-29T15:19:21.085Z,42.60
2018-03-29T15:21:48.646Z,42.80
2018-03-29T15:24:16.105Z,43.40
2018-03-29T15:26:43.617Z,44.20
2018-03-29T15:29:11.872Z,45.00
2018-03-29T15:31:39.356Z,45.00
2018-03-29T15:34:06.860Z,46.20
2018-03-29T15:36:34.344Z,46.20
2018-03-29T15:39:01.858Z,47.00
2018-03-29T15:41:29.350Z,46.80
2018-03-29T15:43:57.625Z,47.10
2018-03-29T15:46:25.121Z,47.20
2018-03-29T15:48:53.377Z,47.90
2018-03-29T15:51:21.649Z,48.50
2018-03-29T15:53:49.137Z,47.90
2018-03-29T15:56:16.641Z,48.20
2018-03-29T15:58:44.120Z,48.70
2018-03-29T16:01:11.629Z,48.70
2018-03-29T16:03:39.112Z,49.50
2018-03-29T16:06:06.597Z,49.30
2018-03-29T16:08:34.109Z,49.70
2018-03-29T16:11:01.598Z,50.50
2018-03-29T16:13:29.102Z,49.80
2018-03-29T16:15:56.589Z,50.00
2018-03-29T16:18:24.092Z,50.40
2018-03-29T16:20:51.588Z,50.50
2018-03-29T16:23:19.073Z,50.40
2018-03-29T16:25:46.577Z,51.00
2018-03-29T16:28:14.825Z,51.10
2018-03-29T16:30:42.338Z,51.00
2018-03-29T16:33:09.821Z,51.80
2018-03-29T16:35:37.325Z,52.00
2018-03-29T16:38:05.580Z,51.40
2018-03-29T16:40:33.093Z,51.40
2018-03-29T16:43:00.580Z,51.30
2018-03-29T16:45:28.070Z,51.70
2018-03-29T16:47:56.340Z,52.50
2018-03-29T16:50:23.821Z,52.30
2018-03-29T16:52:51.332Z,52.20
2018-03-29T16:55:18.816Z,52.40
2018-03-29T16:57:47.084Z,52.80
2018-03-29T17:00:14.573Z,52.80
2018-03-29T17:02:42.085Z,53.10
2018-03-29T17:05:09.568Z,53.60
2018-03-29T17:07:37.053Z,54.00
2018-03-29T17:10:04.562Z,54.40
2018-03-29T17:12:32.053Z,55.10
2018-03-29T17:15:00.338Z,56.10
2018-03-29T17:17:28.593Z,55.80
2018-03-29T17:19:56.113Z,55.80
2018-03-29T17:22:23.600Z,56.20
2018-03-29T17:24:51.110Z,56.60
2018-03-29T17:27:18.601Z,57.30
2018-03-29T17:29:46.097Z,57.30
2018-03-29T17:32:14.376Z,57.70
2018-03-29T17:34:42.634Z,58.20
2018-03-29T17:37:10.145Z,58.90
2018-03-29T17:39:37.629Z,59.90
2018-03-29T17:42:05.138Z,59.90
2018-03-29T17:44:32.625Z,60.90
2018-03-29T17:47:00.130Z,60.70
2018-03-29T17:49:28.386Z,60.20
2018-03-29T17:51:55.873Z,60.20
2018-03-29T17:54:24.145Z,62.00
2018-03-29T17:56:52.401Z,62.50
2018-03-29T17:59:19.909Z,62.40
2018-03-29T18:01:47.388Z,63.40
2018-03-29T18:04:14.899Z,63.00
2018-03-29T18:06:43.153Z,64.00
2018-03-29T18:09:10.656Z,64.00
2018-03-29T18:11:38.145Z,64.40
2018-03-29T18:14:05.625Z,64.90
2018-03-29T18:16:33.135Z,65.70
2018-03-29T18:19:00.621Z,66.20
2018-03-29T18:21:28.125Z,66.10
2018-03-29T18:23:56.380Z,67.10
2018-03-29T18:26:23.886Z,67.00
2018-03-29T18:28:51.370Z,68.40
2018-03-29T18:31:18.877Z,70.00
2018-03-29T18:33:47.125Z,71.60
2018-03-29T18:36:14.611Z,71.60
2018-03-29T18:38:42.877Z,73.60
2018-03-29T18:41:11.132Z,74.50
2018-03-29T18:43:38.641Z,74.50
2018-03-29T18:46:06.121Z,75.00
2018-03-29T18:48:33.622Z,75.40
2018-03-29T18:51:01.141Z,75.80
2018-03-29T18:53:28.620Z,76.10
2018-03-29T18:55:56.101Z,77.20
2018-03-29T18:58:24.354Z,79.00
2018-03-29T19:00:51.856Z,78.20
2018-03-29T19:03:19.345Z,78.20
2018-03-29T19:05:46.852Z,79.40
2018-03-29T19:08:15.113Z,83.10
2018-03-29T19:10:42.622Z,82.80
2018-03-29T19:13:10.105Z,82.00
2018-03-29T19:15:37.590Z,81.60
2018-03-29T19:18:05.094Z,84.60
2018-03-29T19:20:32.581Z,83.50
2018-03-29T19:23:00.089Z,83.10
2018-03-29T19:25:28.345Z,82.50
2018-03-29T19:27:55.862Z,82.50
2018-03-29T19:30:23.357Z,83.30
2018-03-29T19:32:50.844Z,83.80
2018-03-29T19:35:19.118Z,84.00
2018-03-29T19:37:47.364Z,83.90
2018-03-29T19:40:15.657Z,84.20
2018-03-29T19:42:43.909Z,84.90
2018-03-29T19:45:11.420Z,84.90
2018-03-29T19:47:38.911Z,85.30
2018-03-29T19:50:06.400Z,85.70
2018-03-29T19:52:33.904Z,86.50
2018-03-29T19:55:01.402Z,86.60
2018-03-29T19:57:28.913Z,87.20
2018-03-29T19:59:56.398Z,87.60
2018-03-29T20:02:23.902Z,87.90
2018-03-29T20:04:52.149Z,88.50
2018-03-29T20:07:19.629Z,88.50
2018-03-29T20:09:47.900Z,90.10
2018-03-29T20:12:16.166Z,89.90
2018-03-29T20:14:43.674Z,89.70
2018-03-29T20:17:11.157Z,89.80
2018-03-29T20:19:38.668Z,90.10
2018-03-29T20:22:06.922Z,90.10
2018-03-29T20:24:34.404Z,90.10
2018-03-29T20:27:02.676Z,90.20
2018-03-29T20:29:30.932Z,90.30
2018-03-29T20:31:58.441Z,90.20
2018-03-29T20:34:25.929Z,90.40
2018-03-29T20:36:53.432Z,90.60
2018-03-29T20:39:21.688Z,91.10
2018-03-29T20:41:49.186Z,91.10
2018-03-29T20:44:16.697Z,91.60
2018-03-29T20:46:44.180Z,91.60
2018-03-29T20:49:12.457Z,91.60
2018-03-29T20:51:40.717Z,91.80
2018-03-29T20:54:08.226Z,91.70
2018-03-29T20:56:35.714Z,91.90
2018-03-29T20:59:03.202Z,92.00
2018-03-29T21:01:31.485Z,92.30
2018-03-29T21:03:59.744Z,92.30
2018-03-29T21:06:28.038Z,92.40
2018-03-29T21:08:56.301Z,92.40
2018-03-29T21:11:24.576Z,92.50
2018-03-29T21:13:52.833Z,93.10
2018-03-29T21:16:20.362Z,92.70
2018-03-29T21:18:47.852Z,92.90
2018-03-29T21:21:15.345Z,93.10
2018-03-29T21:23:43.625Z,93.20
2018-03-29T21:26:11.163Z,93.10
2018-03-29T21:28:38.645Z,93.30
2018-03-29T21:31:06.141Z,93.40
2018-03-29T21:33:33.629Z,93.40
2018-03-29T21:36:01.160Z,93.40
2018-03-29T21:38:28.636Z,93.50
2018-03-29T21:40:56.915Z,93.50
2018-03-29T21:43:24.403Z,93.40
2018-03-29T21:45:51.925Z,93.60
2018-03-29T21:48:19.409Z,93.60
2018-03-29T21:50:46.926Z,93.80
2018-03-29T21:53:14.437Z,93.80
2018-03-29T21:55:42.691Z,94.00
2018-03-29T21:58:10.192Z,93.90
2018-03-29T22:00:37.681Z,94.00
2018-03-29T22:03:05.233Z,94.00
2018-03-29T22:05:32.702Z,94.10
2018-03-29T22:08:00.216Z,94.20
2018-03-29T22:10:27.741Z,94.20
2018-03-29T22:12:55.249Z,94.30
2018-03-29T22:15:22.739Z,94.30
2018-03-29T22:17:50.225Z,94.40
2018-03-29T22:20:18.501Z,94.60
2018-03-29T22:22:46.769Z,94.60
2018-03-29T22:25:14.302Z,94.60
2018-03-29T22:27:41.773Z,94.70
2018-03-29T22:30:09.286Z,94.70
2018-03-29T22:32:36.769Z,94.90
2018-03-29T22:35:04.305Z,95.10
2018-03-29T22:37:31.797Z,95.10
2018-03-29T22:39:59.285Z,95.20
2018-03-29T22:42:27.553Z,95.20
2018-03-29T22:44:55.032Z,95.20
2018-03-29T22:47:23.304Z,95.20
2018-03-29T22:49:51.560Z,95.20
2018-03-29T22:52:19.073Z,95.20
2018-03-29T22:54:46.561Z,95.10
2018-03-29T22:57:14.049Z,95.20
2018-03-29T22:59:45.188Z,95.30
2018-03-29T23:02:13.439Z,95.70
2018-03-29T23:04:40.945Z,95.70
2018-03-29T23:07:08.439Z,95.80
2018-03-29T23:09:35.948Z,95.80
2018-03-29T23:12:04.196Z,95.90
2018-03-29T23:14:31.685Z,95.90
2018-03-29T23:16:59.965Z,95.80
2018-03-29T23:19:27.454Z,95.80
2018-03-29T23:21:54.964Z,96.00
2018-03-29T23:24:23.212Z,96.30
2018-03-29T23:26:50.717Z,96.30
2018-03-29T23:29:18.206Z,96.20
2018-03-29T23:31:45.689Z,96.30
2018-03-29T23:34:13.192Z,96.30
2018-03-29T23:36:40.676Z,96.50
2018-03-29T23:39:08.185Z,96.50
2018-03-29T23:41:36.440Z,96.40
2018-03-29T23:44:03.948Z,96.30
2018-03-29T23:46:31.442Z,96.20
2018-03-29T23:48:58.933Z,96.20
2018-03-29T23:51:26.441Z,96.20
2018-03-29T23:53:53.929Z,96.10
2018-03-29T23:56:21.436Z,96.10
2018-03-29T23:58:48.926Z,96.20
